| time (UTC) | temp C | wind direction | speed KPH | gust KPH | rain 1hr cm | rain 24hr cm | rain mn cm | humidity % | barometer mb |
| 20260906113504 | 21 | 0 | 0.0 | 0.0 | 0.00 | 0.00 | 0.00 | 95 | 1011.2 |
| 20260906113003 | 21 | 0 | 0.0 | 0.0 | 0.00 | 0.00 | 0.00 | 95 | 1011.2 |
| 20260906112504 | 21 | 0 | 0.0 | 0.0 | 0.00 | 0.00 | 0.00 | 95 | 1011.1 |
| 20260906112024 | 21 | 310 | 0.0 | 1.6 | 0.00 | 0.00 | 0.00 | 95 | 1011.2 |
| 20260906111503 | 21 | 340 | 0.0 | 1.6 | 0.00 | 0.00 | 0.00 | 95 | 1011.0 |
| 20260906111003 | 21 | 68 | 0.0 | 1.6 | 0.00 | 0.00 | 0.00 | 95 | 1010.8 |
| 20260906110503 | 21 | 0 | 0.0 | 0.0 | 0.00 | 0.00 | 0.00 | 95 | 1010.7 |
| 20260906110024 | 21 | 261 | 0.0 | 1.6 | 0.00 | 0.00 | 0.00 | 95 | 1010.7 |
| 20260906105503 | 21 | 306 | 0.0 | 1.6 | 0.00 | 0.00 | 0.00 | 95 | 1010.7 |
| 20260906105003 | 21 | 312 | 0.0 | 1.6 | 0.00 | 0.00 | 0.00 | 95 | 1010.7 |
| 20260906104524 | 21 | 344 | 0.0 | 1.6 | 0.00 | 0.00 | 0.00 | 95 | 1010.6 |
| 20260906104025 | 21 | 334 | 0.0 | 1.6 | 0.00 | 0.00 | 0.00 | 95 | 1010.6 |
| 20260906103503 | 21 | 299 | 0.0 | 1.6 | 0.00 | 0.00 | 0.00 | 95 | 1010.6 |
| 20260906103003 | 21 | 331 | 0.0 | 4.8 | 0.00 | 0.00 | 0.00 | 95 | 1010.5 |
| 20260906102504 | 21 | 324 | 0.0 | 4.8 | 0.00 | 0.00 | 0.00 | 95 | 1010.4 |
| 20260906102004 | 21 | 320 | 0.0 | 3.2 | 0.00 | 0.00 | 0.00 | 95 | 1010.3 |
| 20260906101503 | 21 | 336 | 0.0 | 3.2 | 0.00 | 0.00 | 0.00 | 95 | 1010.3 |
| 20260906101003 | 21 | 343 | 0.0 | 4.8 | 0.00 | 0.00 | 0.00 | 95 | 1010.2 |
| 20260906100503 | 21 | 352 | 0.0 | 4.8 | 0.00 | 0.00 | 0.00 | 95 | 1010.2 |
| 20260906100005 | 21 | 4 | 0.0 | 1.6 | 0.00 | 0.00 | 0.00 | 96 | 1010.1 |
| 20260906095504 | 21 | 336 | 0.0 | 1.6 | 0.00 | 0.00 | 0.00 | 96 | 1010.1 |
| 20260906095003 | 21 | 335 | 0.0 | 1.6 | 0.00 | 0.00 | 0.00 | 96 | 1010.1 |
| 20260906094524 | 21 | 336 | 0.0 | 1.6 | 0.00 | 0.00 | 0.00 | 96 | 1010.1 |
| 20260906094024 | 21 | 335 | 0.0 | 1.6 | 0.00 | 0.00 | 0.00 | 96 | 1010.0 |
| 20260906093504 | 21 | 334 | 0.0 | 1.6 | 0.00 | 0.00 | 0.00 | 96 | 1010.0 |
| 20260906093004 | 21 | 0 | 0.0 | 0.0 | 0.00 | 0.00 | 0.00 | 96 | 1009.9 |
| 20260906092503 | 21 | 0 | 0.0 | 0.0 | 0.00 | 0.00 | 0.00 | 96 | 1009.9 |
| 20260906092003 | 21 | 0 | 0.0 | 0.0 | 0.00 | 0.00 | 0.00 | 96 | 1009.9 |
| 20260906091503 | 21 | 0 | 0.0 | 0.0 | 0.00 | 0.00 | 0.00 | 95 | 1009.9 |
| 20260906091003 | 21 | 0 | 0.0 | 0.0 | 0.00 | 0.00 | 0.00 | 95 | 1010.0 |
| 20260906090503 | 21 | 0 | 0.0 | 0.0 | 0.00 | 0.00 | 0.00 | 95 | 1009.9 |
| 20260906090003 | 21 | 0 | 0.0 | 0.0 | 0.00 | 0.00 | 0.00 | 95 | 1009.8 |
| 20260906085503 | 21 | 0 | 0.0 | 0.0 | 0.00 | 0.00 | 0.00 | 94 | 1009.9 |
| 20260906085024 | 21 | 0 | 0.0 | 0.0 | 0.00 | 0.00 | 0.00 | 94 | 1009.8 |
| 20260906084504 | 21 | 0 | 0.0 | 0.0 | 0.00 | 0.00 | 0.00 | 94 | 1009.7 |
| 20260906084025 | 21 | 0 | 0.0 | 0.0 | 0.00 | 0.00 | 0.00 | 94 | 1009.7 |
| 20260906083504 | 21 | 0 | 0.0 | 0.0 | 0.00 | 0.00 | 0.00 | 94 | 1009.7 |
| 20260906083003 | 21 | 0 | 0.0 | 0.0 | 0.00 | 0.00 | 0.00 | 94 | 1009.5 |
| 20260906082503 | 21 | 0 | 0.0 | 0.0 | 0.00 | 0.00 | 0.00 | 94 | 1009.5 |
| 20260906082003 | 21 | 0 | 0.0 | 0.0 | 0.00 | 0.00 | 0.00 | 94 | 1009.5 |
| 20260906081503 | 21 | 0 | 0.0 | 0.0 | 0.00 | 0.00 | 0.00 | 94 | 1009.5 |
| 20260906081005 | 22 | 0 | 0.0 | 0.0 | 0.00 | 0.00 | 0.00 | 94 | 1009.5 |
| 20260906080503 | 22 | 0 | 0.0 | 0.0 | 0.00 | 0.00 | 0.00 | 93 | 1009.5 |
| 20260906080003 | 22 | 0 | 0.0 | 0.0 | 0.00 | 0.00 | 0.00 | 93 | 1009.6 |
| 20260906075503 | 22 | 0 | 0.0 | 0.0 | 0.00 | 0.00 | 0.00 | 93 | 1009.6 |
| 20260906075024 | 22 | 0 | 0.0 | 0.0 | 0.00 | 0.00 | 0.00 | 93 | 1009.7 |
| 20260906074503 | 22 | 0 | 0.0 | 0.0 | 0.00 | 0.00 | 0.00 | 93 | 1009.8 |
| 20260906074003 | 22 | 0 | 0.0 | 0.0 | 0.00 | 0.00 | 0.00 | 93 | 1009.8 |
| 20260906073503 | 22 | 0 | 0.0 | 0.0 | 0.00 | 0.00 | 0.00 | 93 | 1009.7 |
| 20260906073003 | 22 | 0 | 0.0 | 0.0 | 0.00 | 0.00 | 0.00 | 92 | 1009.9 |
| 20260906072524 | 22 | 0 | 0.0 | 0.0 | 0.00 | 0.00 | 0.00 | 93 | 1009.9 |
| 20260906072003 | 22 | 0 | 0.0 | 0.0 | 0.00 | 0.00 | 0.00 | 93 | 1009.9 |
| 20260906071525 | 22 | 0 | 0.0 | 0.0 | 0.00 | 0.00 | 0.00 | 93 | 1009.9 |
| 20260906071003 | 22 | 0 | 0.0 | 0.0 | 0.00 | 0.00 | 0.00 | 92 | 1010.0 |
| 20260906070503 | 22 | 0 | 0.0 | 0.0 | 0.00 | 0.00 | 0.00 | 92 | 1010.0 |
| 20260906070003 | 22 | 0 | 0.0 | 0.0 | 0.00 | 0.00 | 0.00 | 92 | 1010.1 |
| 20260906065503 | 22 | 0 | 0.0 | 0.0 | 0.00 | 0.00 | 0.00 | 92 | 1010.2 |
| 20260906065004 | 22 | 0 | 0.0 | 0.0 | 0.00 | 0.00 | 0.00 | 91 | 1010.2 |
| 20260906064503 | 22 | 0 | 0.0 | 0.0 | 0.00 | 0.00 | 0.00 | 91 | 1010.2 |
| 20260906064003 | 23 | 0 | 0.0 | 0.0 | 0.00 | 0.00 | 0.00 | 91 | 1010.3 |
| 20260906063503 | 23 | 0 | 0.0 | 0.0 | 0.00 | 0.00 | 0.00 | 90 | 1010.2 |
| 20260906063003 | 23 | 0 | 0.0 | 0.0 | 0.00 | 0.00 | 0.00 | 90 | 1010.3 |
| 20260906062504 | 23 | 0 | 0.0 | 0.0 | 0.00 | 0.00 | 0.00 | 89 | 1010.5 |
| 20260906062004 | 23 | 209 | 0.0 | 1.6 | 0.00 | 0.00 | 0.00 | 89 | 1010.5 |
| 20260906061503 | 23 | 197 | 0.0 | 1.6 | 0.00 | 0.00 | 0.00 | 88 | 1010.3 |
| 20260906061003 | 23 | 42 | 0.0 | 1.6 | 0.00 | 0.00 | 0.00 | 87 | 1010.3 |
| 20260906060503 | 23 | 40 | 0.0 | 1.6 | 0.00 | 0.00 | 0.00 | 87 | 1010.2 |
| 20260906060003 | 23 | 59 | 0.0 | 1.6 | 0.00 | 0.00 | 0.00 | 87 | 1010.0 |
| 20260906055503 | 23 | 79 | 0.0 | 1.6 | 0.00 | 0.00 | 0.00 | 87 | 1010.0 |
| 20260906055003 | 23 | 0 | 0.0 | 0.0 | 0.00 | 0.00 | 0.00 | 87 | 1010.0 |
| 20260906054503 | 23 | 0 | 0.0 | 0.0 | 0.00 | 0.00 | 0.00 | 87 | 1010.0 |
| 20260906054024 | 23 | 61 | 0.0 | 1.6 | 0.00 | 0.00 | 0.00 | 88 | 1010.1 |
| 20260906053503 | 23 | 45 | 0.0 | 3.2 | 0.00 | 0.00 | 0.00 | 88 | 1010.1 |
| 20260906053004 | 23 | 36 | 0.0 | 3.2 | 0.00 | 0.00 | 0.00 | 89 | 1010.1 |
| 20260906052503 | 23 | 346 | 0.0 | 1.6 | 0.00 | 0.00 | 0.00 | 90 | 1010.1 |
| 20260906052003 | 23 | 0 | 0.0 | 0.0 | 0.00 | 0.00 | 0.00 | 90 | 1010.2 |
| 20260906051504 | 23 | 0 | 0.0 | 0.0 | 0.00 | 0.00 | 0.00 | 89 | 1010.3 |
| 20260906051003 | 23 | 0 | 0.0 | 0.0 | 0.00 | 0.00 | 0.00 | 89 | 1010.3 |
| 20260906050504 | 23 | 0 | 0.0 | 0.0 | 0.00 | 0.00 | 0.00 | 87 | 1010.4 |
| 20260906050004 | 23 | 0 | 0.0 | 0.0 | 0.00 | 0.00 | 0.00 | 87 | 1010.5 |
| 20260906045503 | 23 | 0 | 0.0 | 0.0 | 0.00 | 0.00 | 0.00 | 86 | 1010.5 |
| 20260906045004 | 23 | 0 | 0.0 | 0.0 | 0.00 | 0.00 | 0.00 | 86 | 1010.4 |
| 20260906044503 | 23 | 0 | 0.0 | 0.0 | 0.00 | 0.00 | 0.00 | 86 | 1010.4 |
| 20260906044003 | 23 | 348 | 0.0 | 1.6 | 0.00 | 0.00 | 0.00 | 86 | 1010.5 |
| 20260906043525 | 23 | 348 | 0.0 | 1.6 | 0.00 | 0.00 | 0.00 | 86 | 1010.4 |
| 20260906043024 | 24 | 0 | 0.0 | 0.0 | 0.00 | 0.00 | 0.00 | 86 | 1010.2 |
| 20260906042524 | 24 | 0 | 0.0 | 0.0 | 0.00 | 0.00 | 0.00 | 85 | 1010.4 |
| 20260906042003 | 24 | 0 | 0.0 | 0.0 | 0.00 | 0.00 | 0.00 | 85 | 1010.5 |
| 20260906041504 | 24 | 323 | 0.0 | 3.2 | 0.00 | 0.00 | 0.00 | 85 | 1010.5 |
| 20260906041024 | 24 | 323 | 0.0 | 3.2 | 0.00 | 0.00 | 0.00 | 85 | 1010.5 |
| 20260906040504 | 24 | 23 | 0.0 | 1.6 | 0.00 | 0.00 | 0.00 | 86 | 1010.4 |
| 20260906040005 | 24 | 337 | 0.0 | 4.8 | 0.00 | 0.00 | 0.00 | 87 | 1010.3 |
| 20260906035504 | 23 | 336 | 0.0 | 4.8 | 0.00 | 0.00 | 0.00 | 88 | 1010.4 |
| 20260906035003 | 23 | 247 | 0.0 | 1.6 | 0.00 | 0.00 | 0.00 | 89 | 1010.2 |
| 20260906034503 | 23 | 247 | 0.0 | 1.6 | 0.00 | 0.00 | 0.00 | 89 | 1010.1 |
| 20260906034024 | 23 | 0 | 0.0 | 0.0 | 0.00 | 0.00 | 0.00 | 90 | 1009.8 |
| 20260906033503 | 23 | 0 | 0.0 | 0.0 | 0.00 | 0.00 | 0.00 | 89 | 1009.7 |
| 20260906033004 | 23 | 0 | 0.0 | 0.0 | 0.00 | 0.00 | 0.00 | 89 | 1009.7 |
| 20260906032524 | 23 | 248 | 0.0 | 1.6 | 0.00 | 0.00 | 0.00 | 89 | 1009.7 |
| 20260906032004 | 23 | 248 | 0.0 | 1.6 | 0.00 | 0.00 | 0.00 | 89 | 1009.7 |
| 20260906031504 | 23 | 0 | 0.0 | 0.0 | 0.00 | 0.00 | 0.00 | 88 | 1009.4 |
| 20260906031004 | 23 | 0 | 0.0 | 0.0 | 0.00 | 0.00 | 0.00 | 88 | 1009.4 |
| 20260906030503 | 23 | 0 | 0.0 | 0.0 | 0.00 | 0.00 | 0.00 | 88 | 1009.5 |
| 20260906030003 | 23 | 0 | 0.0 | 0.0 | 0.00 | 0.00 | 0.00 | 88 | 1009.5 |
| 20260906025503 | 23 | 0 | 0.0 | 0.0 | 0.00 | 0.00 | 0.00 | 88 | 1009.5 |
| 20260906025003 | 23 | 0 | 0.0 | 0.0 | 0.00 | 0.00 | 0.00 | 88 | 1009.6 |
| 20260906024504 | 23 | 0 | 0.0 | 0.0 | 0.00 | 0.00 | 0.00 | 87 | 1009.6 |
| 20260906024003 | 24 | 0 | 0.0 | 0.0 | 0.00 | 0.00 | 0.00 | 87 | 1009.6 |
| 20260906023504 | 24 | 0 | 0.0 | 0.0 | 0.00 | 0.00 | 0.00 | 87 | 1009.6 |
| 20260906023025 | 24 | 0 | 0.0 | 0.0 | 0.00 | 0.00 | 0.00 | 86 | 1009.6 |
| 20260906022503 | 24 | 0 | 0.0 | 0.0 | 0.00 | 0.00 | 0.00 | 87 | 1009.6 |
| 20260906022004 | 24 | 0 | 0.0 | 0.0 | 0.00 | 0.00 | 0.00 | 86 | 1009.6 |
| 20260906021503 | 24 | 0 | 0.0 | 0.0 | 0.00 | 0.00 | 0.00 | 85 | 1009.6 |
| 20260906021003 | 25 | 0 | 0.0 | 0.0 | 0.00 | 0.00 | 0.00 | 85 | 1009.5 |
| 20260906020503 | 25 | 0 | 0.0 | 0.0 | 0.00 | 0.00 | 0.00 | 84 | 1009.5 |
| 20260906020024 | 25 | 0 | 0.0 | 0.0 | 0.00 | 0.00 | 0.00 | 84 | 1009.5 |
| 20260906015525 | 25 | 0 | 0.0 | 0.0 | 0.00 | 0.00 | 0.00 | 84 | 1009.5 |
| 20260906015004 | 25 | 0 | 0.0 | 0.0 | 0.00 | 0.00 | 0.00 | 83 | 1009.5 |
| 20260906014503 | 25 | 0 | 0.0 | 0.0 | 0.00 | 0.00 | 0.00 | 82 | 1009.3 |
| 20260906014003 | 25 | 0 | 0.0 | 0.0 | 0.00 | 0.00 | 0.00 | 83 | 1009.3 |
| 20260906013503 | 25 | 0 | 0.0 | 0.0 | 0.00 | 0.00 | 0.00 | 83 | 1009.2 |
| 20260906013004 | 25 | 0 | 0.0 | 0.0 | 0.00 | 0.00 | 0.00 | 84 | 1009.0 |
| 20260906012504 | 25 | 0 | 0.0 | 0.0 | 0.00 | 0.00 | 0.00 | 83 | 1008.9 |
| 20260906012003 | 25 | 0 | 0.0 | 0.0 | 0.00 | 0.00 | 0.00 | 84 | 1008.8 |
| 20260906011524 | 25 | 0 | 0.0 | 0.0 | 0.00 | 0.00 | 0.00 | 83 | 1008.7 |
| 20260906011004 | 25 | 0 | 0.0 | 0.0 | 0.00 | 0.00 | 0.00 | 82 | 1008.8 |
| 20260906010503 | 26 | 0 | 0.0 | 0.0 | 0.00 | 0.00 | 0.00 | 82 | 1008.7 |
| 20260906010003 | 26 | 0 | 0.0 | 0.0 | 0.00 | 0.00 | 0.00 | 82 | 1008.7 |
| 20260906005504 | 26 | 0 | 0.0 | 0.0 | 0.00 | 0.00 | 0.00 | 81 | 1008.7 |
| 20260906005003 | 26 | 0 | 0.0 | 0.0 | 0.00 | 0.00 | 0.00 | 80 | 1008.7 |
| 20260906004504 | 27 | 294 | 0.0 | 1.6 | 0.00 | 0.00 | 0.00 | 79 | 1008.6 |
| 20260906004003 | 27 | 311 | 1.6 | 6.4 | 0.00 | 0.00 | 0.00 | 79 | 1008.7 |
| 20260906003525 | 27 | 307 | 1.6 | 6.4 | 0.00 | 0.00 | 0.00 | 79 | 1008.7 |
| 20260906003003 | 27 | 294 | 0.0 | 3.2 | 0.00 | 0.00 | 0.00 | 79 | 1008.8 |
| 20260906002504 | 27 | 0 | 0.0 | 0.0 | 0.00 | 0.00 | 0.00 | 78 | 1008.9 |
| 20260906002003 | 27 | 0 | 0.0 | 0.0 | 0.00 | 0.00 | 0.00 | 78 | 1008.9 |
| 20260906001503 | 28 | 0 | 0.0 | 0.0 | 0.00 | 0.00 | 0.00 | 76 | 1009.2 |
| 20260906001003 | 28 | 249 | 0.0 | 1.6 | 0.00 | 0.00 | 0.00 | 76 | 1009.2 |
| 20260906000503 | 28 | 249 | 0.0 | 1.6 | 0.00 | 0.00 | 0.00 | 75 | 1009.4 |
| 20260906000024 | 28 | 227 | 0.0 | 4.8 | 0.00 | 0.00 | 0.00 | 74 | 1009.4 |
| 20260905235503 | 28 | 179 | 1.6 | 4.8 | 0.00 | 0.00 | 0.00 | 74 | 1009.5 |
| 20260905235003 | 29 | 129 | 0.0 | 4.8 | 0.00 | 0.00 | 0.00 | 76 | 1009.5 |
| 20260905234503 | 30 | 0 | 0.0 | 0.0 | 0.00 | 0.00 | 0.00 | 73 | 1009.6 |
| 20260905234025 | 30 | 0 | 0.0 | 0.0 | 0.00 | 0.00 | 0.00 | 72 | 1009.5 |
| 20260905233503 | 30 | 0 | 0.0 | 0.0 | 0.00 | 0.00 | 0.00 | 71 | 1009.5 |
| 20260905233003 | 31 | 0 | 0.0 | 0.0 | 0.00 | 0.00 | 0.00 | 69 | 1009.3 |
| 20260905232504 | 31 | 0 | 0.0 | 0.0 | 0.00 | 0.00 | 0.00 | 68 | 1009.2 |
| 20260905232003 | 31 | 0 | 0.0 | 0.0 | 0.00 | 0.00 | 0.00 | 68 | 1009.2 |
| 20260905231504 | 31 | 0 | 0.0 | 0.0 | 0.00 | 0.00 | 0.00 | 67 | 1009.4 |
| 20260905231003 | 31 | 15 | 0.0 | 1.6 | 0.00 | 0.00 | 0.00 | 66 | 1009.3 |
| 20260905230504 | 32 | 15 | 0.0 | 1.6 | 0.00 | 0.00 | 0.00 | 65 | 1009.3 |
| 20260905230004 | 32 | 15 | 0.0 | 1.6 | 0.00 | 0.00 | 0.00 | 64 | 1009.3 |
| 20260905225503 | 32 | 15 | 0.0 | 1.6 | 0.00 | 0.00 | 0.00 | 64 | 1009.1 |
| 20260905225024 | 32 | 9 | 0.0 | 1.6 | 0.00 | 0.00 | 0.00 | 62 | 1009.0 |
| 20260905224504 | 32 | 327 | 0.0 | 1.6 | 0.00 | 0.00 | 0.00 | 62 | 1009.1 |
| 20260905224003 | 32 | 326 | 0.0 | 1.6 | 0.00 | 0.00 | 0.00 | 61 | 1009.1 |
| 20260905223504 | 32 | 351 | 0.0 | 4.8 | 0.00 | 0.00 | 0.00 | 61 | 1009.2 |
| 20260905223003 | 32 | 5 | 0.0 | 4.8 | 0.00 | 0.00 | 0.00 | 59 | 1009.0 |
| 20260905222503 | 32 | 357 | 0.0 | 4.8 | 0.00 | 0.00 | 0.00 | 60 | 1009.0 |
| 20260905222003 | 32 | 334 | 1.6 | 4.8 | 0.00 | 0.00 | 0.00 | 60 | 1009.0 |
| 20260905221504 | 32 | 317 | 1.6 | 4.8 | 0.00 | 0.00 | 0.00 | 59 | 1009.0 |
| 20260905221003 | 33 | 301 | 0.0 | 4.8 | 0.00 | 0.00 | 0.00 | 59 | 1009.0 |
| 20260905220503 | 33 | 290 | 0.0 | 4.8 | 0.00 | 0.00 | 0.00 | 59 | 1009.1 |
| 20260905220004 | 33 | 314 | 1.6 | 4.8 | 0.00 | 0.00 | 0.00 | 59 | 1009.1 |
| 20260905215524 | 33 | 322 | 1.6 | 8.0 | 0.00 | 0.00 | 0.00 | 58 | 1009.0 |
| 20260905215004 | 33 | 308 | 1.6 | 8.0 | 0.00 | 0.00 | 0.00 | 59 | 1009.1 |
| 20260905214503 | 33 | 287 | 1.6 | 4.8 | 0.00 | 0.00 | 0.00 | 58 | 1009.1 |
| 20260905214025 | 33 | 308 | 1.6 | 4.8 | 0.00 | 0.00 | 0.00 | 57 | 1009.1 |
| 20260905213525 | 33 | 345 | 3.2 | 8.0 | 0.00 | 0.00 | 0.00 | 57 | 1009.1 |
| 20260905213003 | 33 | 338 | 3.2 | 8.0 | 0.00 | 0.00 | 0.00 | 58 | 1009.0 |
| 20260905212504 | 33 | 324 | 1.6 | 9.7 | 0.00 | 0.00 | 0.00 | 60 | 1009.0 |
| 20260905212004 | 33 | 5 | 3.2 | 9.7 | 0.00 | 0.00 | 0.00 | 58 | 1009.1 |
| 20260905211524 | 33 | 4 | 3.2 | 8.0 | 0.00 | 0.00 | 0.00 | 57 | 1009.1 |
| 20260905211003 | 33 | 323 | 3.2 | 8.0 | 0.00 | 0.00 | 0.00 | 56 | 1009.2 |
| 20260905210503 | 33 | 307 | 1.6 | 6.4 | 0.00 | 0.00 | 0.00 | 55 | 1009.2 |
| 20260905210004 | 33 | 305 | 1.6 | 6.4 | 0.00 | 0.00 | 0.00 | 56 | 1009.3 |
| 20260905205503 | 33 | 310 | 3.2 | 8.0 | 0.00 | 0.00 | 0.00 | 57 | 1009.2 |
| 20260905205004 | 34 | 316 | 3.2 | 8.0 | 0.00 | 0.00 | 0.00 | 56 | 1009.3 |
| 20260905204503 | 34 | 322 | 3.2 | 9.7 | 0.00 | 0.00 | 0.00 | 55 | 1009.3 |
| 20260905204003 | 34 | 313 | 3.2 | 11.3 | 0.00 | 0.00 | 0.00 | 56 | 1009.3 |
| 20260905203503 | 34 | 308 | 3.2 | 11.3 | 0.00 | 0.00 | 0.00 | 55 | 1009.4 |
| 20260905203003 | 34 | 315 | 1.6 | 8.0 | 0.00 | 0.00 | 0.00 | 57 | 1009.4 |
| 20260905202503 | 34 | 340 | 3.2 | 11.3 | 0.00 | 0.00 | 0.00 | 57 | 1009.5 |
| 20260905202024 | 34 | 347 | 3.2 | 12.9 | 0.00 | 0.00 | 0.00 | 55 | 1009.6 |
| 20260905201503 | 34 | 331 | 3.2 | 12.9 | 0.00 | 0.00 | 0.00 | 56 | 1009.6 |
| 20260905201004 | 34 | 348 | 3.2 | 8.0 | 0.00 | 0.00 | 0.00 | 57 | 1009.7 |
| 20260905200503 | 34 | 1 | 3.2 | 8.0 | 0.00 | 0.00 | 0.00 | 56 | 1009.7 |
| 20260905200003 | 34 | 325 | 1.6 | 4.8 | 0.00 | 0.00 | 0.00 | 55 | 1009.7 |
| 20260905195504 | 35 | 282 | 1.6 | 4.8 | 0.00 | 0.00 | 0.00 | 54 | 1009.9 |
| 20260905195004 | 35 | 289 | 1.6 | 3.2 | 0.00 | 0.00 | 0.00 | 55 | 1009.9 |
| 20260905194503 | 35 | 293 | 0.0 | 3.2 | 0.00 | 0.00 | 0.00 | 54 | 1010.0 |
| 20260905194004 | 35 | 197 | 0.0 | 3.2 | 0.00 | 0.00 | 0.00 | 56 | 1010.1 |
| 20260905193524 | 34 | 154 | 1.6 | 6.4 | 0.00 | 0.00 | 0.00 | 56 | 1010.1 |
| 20260905193003 | 34 | 130 | 3.2 | 6.4 | 0.00 | 0.00 | 0.00 | 56 | 1010.1 |
| 20260905192524 | 34 | 95 | 1.6 | 4.8 | 0.00 | 0.00 | 0.00 | 55 | 1010.2 |
| 20260905192003 | 33 | 340 | 1.6 | 8.0 | 0.00 | 0.00 | 0.00 | 56 | 1010.3 |
| 20260905191504 | 33 | 72 | 1.6 | 9.7 | 0.00 | 0.00 | 0.00 | 54 | 1010.3 |
| 20260905191003 | 33 | 75 | 1.6 | 9.7 | 0.00 | 0.00 | 0.00 | 57 | 1010.3 |
| 20260905190504 | 33 | 56 | 1.6 | 6.4 | 0.00 | 0.00 | 0.00 | 57 | 1010.5 |
| 20260905190004 | 33 | 82 | 0.0 | 3.2 | 0.00 | 0.00 | 0.00 | 55 | 1010.6 |
| 20260905185504 | 34 | 141 | 1.6 | 3.2 | 0.00 | 0.00 | 0.00 | 56 | 1010.7 |
| 20260905185004 | 33 | 148 | 1.6 | 6.4 | 0.00 | 0.00 | 0.00 | 54 | 1010.7 |
| 20260905184504 | 33 | 164 | 1.6 | 6.4 | 0.00 | 0.00 | 0.00 | 58 | 1010.7 |
| 20260905184003 | 33 | 216 | 1.6 | 4.8 | 0.00 | 0.00 | 0.00 | 58 | 1010.7 |
| 20260905183503 | 33 | 273 | 1.6 | 3.2 | 0.00 | 0.00 | 0.00 | 57 | 1010.8 |
| 20260905183003 | 33 | 154 | 1.6 | 6.4 | 0.00 | 0.00 | 0.00 | 60 | 1010.9 |
| 20260905182503 | 33 | 136 | 1.6 | 8.0 | 0.00 | 0.00 | 0.00 | 56 | 1011.1 |
| 20260905182003 | 32 | 129 | 1.6 | 8.0 | 0.00 | 0.00 | 0.00 | 60 | 1011.2 |
| 20260905181504 | 32 | 93 | 3.2 | 6.4 | 0.00 | 0.00 | 0.00 | 60 | 1011.2 |
| 20260905181003 | 32 | 114 | 3.2 | 8.0 | 0.00 | 0.00 | 0.00 | 59 | 1011.3 |
| 20260905180503 | 32 | 133 | 3.2 | 8.0 | 0.00 | 0.00 | 0.00 | 59 | 1011.3 |
| 20260905180004 | 32 | 122 | 3.2 | 6.4 | 0.00 | 0.00 | 0.00 | 61 | 1011.2 |
| 20260905175504 | 32 | 129 | 3.2 | 6.4 | 0.00 | 0.00 | 0.00 | 59 | 1011.3 |
| 20260905175003 | 32 | 136 | 1.6 | 8.0 | 0.00 | 0.00 | 0.00 | 60 | 1011.4 |
| 20260905174504 | 32 | 138 | 1.6 | 8.0 | 0.00 | 0.00 | 0.00 | 60 | 1011.5 |
| 20260905174003 | 32 | 133 | 1.6 | 11.3 | 0.00 | 0.00 | 0.00 | 61 | 1011.5 |
| 20260905173503 | 32 | 136 | 3.2 | 11.3 | 0.00 | 0.00 | 0.00 | 60 | 1011.5 |
| 20260905173004 | 31 | 140 | 3.2 | 8.0 | 0.00 | 0.00 | 0.00 | 61 | 1011.5 |
| 20260905172524 | 31 | 151 | 3.2 | 9.7 | 0.00 | 0.00 | 0.00 | 63 | 1011.6 |
| 20260905172025 | 31 | 149 | 3.2 | 9.7 | 0.00 | 0.00 | 0.00 | 61 | 1011.6 |
| 20260905171504 | 31 | 157 | 1.6 | 8.0 | 0.00 | 0.00 | 0.00 | 63 | 1011.7 |
| 20260905171003 | 31 | 135 | 3.2 | 6.4 | 0.00 | 0.00 | 0.00 | 64 | 1011.7 |
| 20260905170504 | 31 | 137 | 4.8 | 9.7 | 0.00 | 0.00 | 0.00 | 62 | 1011.8 |
| 20260905170004 | 31 | 145 | 3.2 | 9.7 | 0.00 | 0.00 | 0.00 | 60 | 1011.8 |
| 20260905165504 | 31 | 137 | 3.2 | 9.7 | 0.00 | 0.00 | 0.00 | 65 | 1012.0 |
| 20260905165003 | 31 | 136 | 4.8 | 12.9 | 0.00 | 0.00 | 0.00 | 62 | 1012.0 |
| 20260905164503 | 30 | 132 | 4.8 | 12.9 | 0.00 | 0.00 | 0.00 | 63 | 1012.0 |
| 20260905164003 | 30 | 152 | 3.2 | 11.3 | 0.00 | 0.00 | 0.00 | 64 | 1012.0 |
| 20260905163503 | 30 | 163 | 3.2 | 11.3 | 0.00 | 0.00 | 0.00 | 66 | 1012.1 |
| 20260905163004 | 30 | 151 | 4.8 | 11.3 | 0.00 | 0.00 | 0.00 | 67 | 1011.9 |
| 20260905162527 | 30 | 140 | 4.8 | 11.3 | 0.00 | 0.00 | 0.00 | 66 | 1011.9 |
| 20260905153004 | 28 | 89 | 3.2 | 9.7 | 0.00 | 0.00 | 0.00 | 71 | 1012.6 |
| 20260905152525 | 28 | 86 | 3.2 | 8.0 | 0.00 | 0.00 | 0.00 | 70 | 1012.7 |
| 20260905152003 | 28 | 114 | 1.6 | 11.3 | 0.00 | 0.00 | 0.00 | 75 | 1012.7 |
| 20260905151503 | 27 | 82 | 3.2 | 12.9 | 0.00 | 0.00 | 0.00 | 73 | 1012.8 |
| 20260905151003 | 27 | 69 | 3.2 | 12.9 | 0.00 | 0.00 | 0.00 | 75 | 1012.8 |
| 20260905150504 | 27 | 101 | 3.2 | 9.7 | 0.00 | 0.00 | 0.00 | 77 | 1012.8 |
| 20260905150003 | 27 | 138 | 3.2 | 9.7 | 0.00 | 0.00 | 0.00 | 76 | 1012.8 |
| 20260905145503 | 26 | 154 | 1.6 | 8.0 | 0.00 | 0.00 | 0.00 | 77 | 1012.9 |
| 20260905145004 | 26 | 124 | 1.6 | 8.0 | 0.00 | 0.00 | 0.00 | 80 | 1012.9 |
| 20260905144504 | 25 | 85 | 1.6 | 6.4 | 0.00 | 0.00 | 0.00 | 80 | 1012.9 |
| 20260905144003 | 25 | 75 | 1.6 | 8.0 | 0.00 | 0.00 | 0.00 | 80 | 1013.0 |
| 20260905143525 | 25 | 84 | 1.6 | 8.0 | 0.00 | 0.00 | 0.00 | 79 | 1012.9 |
| 20260905143004 | 25 | 109 | 3.2 | 11.3 | 0.00 | 0.00 | 0.00 | 79 | 1013.0 |
| 20260905142503 | 25 | 122 | 3.2 | 11.3 | 0.00 | 0.00 | 0.00 | 78 | 1013.0 |
| 20260905142003 | 25 | 124 | 1.6 | 9.7 | 0.00 | 0.00 | 0.00 | 78 | 1013.1 |
| 20260905141524 | 25 | 92 | 1.6 | 11.3 | 0.00 | 0.00 | 0.00 | 78 | 1013.2 |
| 20260905141003 | 25 | 71 | 1.6 | 11.3 | 0.00 | 0.00 | 0.00 | 80 | 1013.3 |
| 20260905140503 | 25 | 73 | 1.6 | 11.3 | 0.00 | 0.00 | 0.00 | 79 | 1013.4 |
| 20260905140004 | 25 | 69 | 3.2 | 12.9 | 0.00 | 0.00 | 0.00 | 82 | 1013.4 |
| 20260905135503 | 24 | 60 | 4.8 | 17.7 | 0.00 | 0.00 | 0.00 | 82 | 1013.3 |
| 20260905135024 | 24 | 51 | 4.8 | 17.7 | 0.00 | 0.00 | 0.00 | 81 | 1013.3 |
| 20260905134503 | 24 | 32 | 6.4 | 19.3 | 0.00 | 0.00 | 0.00 | 81 | 1013.1 |
| 20260905134025 | 24 | 18 | 6.4 | 19.3 | 0.00 | 0.00 | 0.00 | 80 | 1013.3 |
| 20260905133503 | 25 | 24 | 6.4 | 17.7 | 0.00 | 0.00 | 0.00 | 80 | 1013.1 |
| 20260905133024 | 25 | 33 | 4.8 | 17.7 | 0.00 | 0.00 | 0.00 | 80 | 1013.2 |
| 20260905132503 | 24 | 22 | 3.2 | 17.7 | 0.00 | 0.00 | 0.00 | 83 | 1013.2 |
| 20260905132003 | 24 | 7 | 3.2 | 14.5 | 0.00 | 0.00 | 0.00 | 84 | 1013.4 |
| 20260905131504 | 23 | 357 | 3.2 | 14.5 | 0.00 | 0.00 | 0.00 | 84 | 1013.2 |
| 20260905131024 | 23 | 346 | 3.2 | 14.5 | 0.00 | 0.00 | 0.00 | 85 | 1013.3 |
| 20260905130524 | 23 | 22 | 1.6 | 11.3 | 0.00 | 0.00 | 0.00 | 85 | 1013.3 |
| 20260905130003 | 23 | 55 | 1.6 | 11.3 | 0.00 | 0.00 | 0.00 | 86 | 1013.0 |
| 20260905125503 | 23 | 28 | 0.0 | 3.2 | 0.00 | 0.00 | 0.00 | 87 | 1012.9 |
| 20260905125003 | 23 | 44 | 0.0 | 1.6 | 0.00 | 0.00 | 0.00 | 87 | 1012.9 |
| 20260905124503 | 23 | 35 | 0.0 | 1.6 | 0.00 | 0.00 | 0.00 | 86 | 1013.0 |
| 20260905124004 | 23 | 12 | 0.0 | 3.2 | 0.00 | 0.00 | 0.00 | 86 | 1013.0 |
| 20260905123504 | 23 | 2 | 0.0 | 3.2 | 0.00 | 0.00 | 0.00 | 86 | 1013.0 |
| 20260905123004 | 23 | 5 | 0.0 | 3.2 | 0.00 | 0.00 | 0.00 | 86 | 1013.0 |
| 20260905122503 | 23 | 5 | 0.0 | 3.2 | 0.00 | 0.00 | 0.00 | 86 | 1012.7 |
| 20260905122003 | 23 | 342 | 0.0 | 3.2 | 0.00 | 0.00 | 0.00 | 86 | 1012.7 |
| 20260905121503 | 23 | 8 | 0.0 | 3.2 | 0.00 | 0.00 | 0.00 | 86 | 1012.7 |
| 20260905121004 | 23 | 45 | 0.0 | 4.8 | 0.00 | 0.00 | 0.00 | 86 | 1012.6 |
| 20260905120503 | 23 | 64 | 1.6 | 6.4 | 0.00 | 0.00 | 0.00 | 87 | 1012.6 |
| 20260905120003 | 23 | 70 | 1.6 | 6.4 | 0.00 | 0.00 | 0.00 | 86 | 1012.4 |
| 20260905115503 | 23 | 360 | 1.6 | 6.4 | 0.00 | 0.00 | 0.00 | 86 | 1012.4 |
| 20260905115003 | 23 | 7 | 3.2 | 11.3 | 0.00 | 0.00 | 0.00 | 86 | 1012.4 |
| 20260905114503 | 24 | 355 | 3.2 | 14.5 | 0.00 | 0.00 | 0.00 | 87 | 1012.4 |
| 20260905114003 | 24 | 341 | 3.2 | 14.5 | 0.00 | 0.00 | 0.00 | 88 | 1012.3 |
| 20260905113524 | 23 | 356 | 1.6 | 14.5 | 0.00 | 0.00 | 0.00 | 91 | 1012.4 |